sensor_id;sensor_type;location;lat;lon;timestamp;pressure;altitude;pressure_sealevel;temperature;humidity
56582;BME280;42463;52.214;21.238;2023-08-08T00:01:43;99405.00;;;18.67;60.82
56582;BME280;42463;52.214;21.238;2023-08-08T00:03:49;99408.82;;;18.66;60.71
56582;BME280;42463;52.214;21.238;2023-08-08T00:05:57;99410.90;;;18.65;61.06
56582;BME280;42463;52.214;21.238;2023-08-08T00:08:03;99411.73;;;18.65;61.03
56582;BME280;42463;52.214;21.238;2023-08-08T00:10:10;99410.98;;;18.59;60.71
56582;BME280;42463;52.214;21.238;2023-08-08T00:12:15;99410.50;;;18.50;60.72
56582;BME280;42463;52.214;21.238;2023-08-08T00:14:21;99413.33;;;18.46;60.83
56582;BME280;42463;52.214;21.238;2023-08-08T00:16:27;99415.88;;;18.45;60.70
56582;BME280;42463;52.214;21.238;2023-08-08T00:18:32;99420.14;;;18.46;60.60
56582;BME280;42463;52.214;21.238;2023-08-08T00:20:38;99424.00;;;18.44;60.48
56582;BME280;42463;52.214;21.238;2023-08-08T00:22:43;99424.27;;;18.43;60.41
56582;BME280;42463;52.214;21.238;2023-08-08T00:24:49;99424.98;;;18.39;60.64
56582;BME280;42463;52.214;21.238;2023-08-08T00:26:55;99427.70;;;18.39;60.33
56582;BME280;42463;52.214;21.238;2023-08-08T00:29:01;99431.20;;;18.38;60.21
56582;BME280;42463;52.214;21.238;2023-08-08T00:31:06;99430.73;;;18.37;59.98
56582;BME280;42463;52.214;21.238;2023-08-08T00:33:12;99433.75;;;18.39;60.01
56582;BME280;42463;52.214;21.238;2023-08-08T00:35:17;99441.45;;;18.41;59.81
56582;BME280;42463;52.214;21.238;2023-08-08T00:37:25;99445.70;;;18.38;59.24
56582;BME280;42463;52.214;21.238;2023-08-08T00:39:30;99442.75;;;18.33;58.83
56582;BME280;42463;52.214;21.238;2023-08-08T00:41:36;99447.13;;;18.30;59.24
56582;BME280;42463;52.214;21.238;2023-08-08T00:43:42;99452.98;;;18.30;58.84
56582;BME280;42463;52.214;21.238;2023-08-08T00:45:48;99453.86;;;18.26;58.43
56582;BME280;42463;52.214;21.238;2023-08-08T00:47:54;99453.96;;;18.27;58.23
56582;BME280;42463;52.214;21.238;2023-08-08T00:50:01;99459.34;;;18.22;57.72
56582;BME280;42463;52.214;21.238;2023-08-08T00:52:08;99458.73;;;18.21;57.74
56582;BME280;42463;52.214;21.238;2023-08-08T00:54:14;99458.31;;;18.18;57.85
56582;BME280;42463;52.214;21.238;2023-08-08T00:56:21;99463.64;;;18.18;57.55
56582;BME280;42463;52.214;21.238;2023-08-08T00:58:26;99464.05;;;18.15;57.16
56582;BME280;42463;52.214;21.238;2023-08-08T01:03:46;99470.41;;;18.09;57.34
56582;BME280;42463;52.214;21.238;2023-08-08T01:05:57;99466.96;;;18.06;57.05
56582;BME280;42463;52.214;21.238;2023-08-08T01:08:06;99471.47;;;18.03;57.24
56582;BME280;42463;52.214;21.238;2023-08-08T01:10:14;99472.09;;;18.03;56.99
56582;BME280;42463;52.214;21.238;2023-08-08T01:12:21;99476.63;;;18.04;57.07
56582;BME280;42463;52.214;21.238;2023-08-08T01:14:30;99477.91;;;18.09;57.35
56582;BME280;42463;52.214;21.238;2023-08-08T01:16:38;99482.39;;;18.11;56.68
56582;BME280;42463;52.214;21.238;2023-08-08T01:18:45;99483.67;;;18.13;56.84
56582;BME280;42463;52.214;21.238;2023-08-08T01:20:53;99487.94;;;18.16;56.73
56582;BME280;42463;52.214;21.238;2023-08-08T01:23:08;99488.40;;;18.13;56.50
56582;BME280;42463;52.214;21.238;2023-08-08T01:25:15;99491.11;;;18.13;56.37
56582;BME280;42463;52.214;21.238;2023-08-08T01:27:20;99497.86;;;18.13;56.40
56582;BME280;42463;52.214;21.238;2023-08-08T01:29:26;99498.47;;;18.14;56.02
56582;BME280;42463;52.214;21.238;2023-08-08T01:31:32;99503.70;;;18.14;56.09
56582;BME280;42463;52.214;21.238;2023-08-08T01:33:38;99505.64;;;18.13;56.37
56582;BME280;42463;52.214;21.238;2023-08-08T01:35:46;99506.97;;;18.11;56.10
56582;BME280;42463;52.214;21.238;2023-08-08T01:37:57;99507.95;;;18.10;56.03
56582;BME280;42463;52.214;21.238;2023-08-08T01:40:08;99512.01;;;18.12;56.03
56582;BME280;42463;52.214;21.238;2023-08-08T01:42:18;99510.20;;;18.12;55.52
56582;BME280;42463;52.214;21.238;2023-08-08T01:44:27;99521.90;;;18.07;55.62
56582;BME280;42463;52.214;21.238;2023-08-08T01:46:34;99522.84;;;18.05;55.75
56582;BME280;42463;52.214;21.238;2023-08-08T01:48:40;99524.46;;;18.01;55.48
56582;BME280;42463;52.214;21.238;2023-08-08T01:50:49;99527.23;;;18.00;55.38
56582;BME280;42463;52.214;21.238;2023-08-08T01:52:55;99526.28;;;17.96;55.34
56582;BME280;42463;52.214;21.238;2023-08-08T01:55:00;99525.17;;;17.96;55.72
56582;BME280;42463;52.214;21.238;2023-08-08T01:57:07;99527.73;;;17.91;55.23
56582;BME280;42463;52.214;21.238;2023-08-08T01:59:13;99527.93;;;17.89;55.79
56582;BME280;42463;52.214;21.238;2023-08-08T02:01:18;99527.51;;;17.88;55.56
56582;BME280;42463;52.214;21.238;2023-08-08T02:03:24;99526.50;;;17.90;55.50
56582;BME280;42463;52.214;21.238;2023-08-08T02:05:29;99531.84;;;17.89;55.26
56582;BME280;42463;52.214;21.238;2023-08-08T02:07:35;99533.69;;;17.85;55.28
56582;BME280;42463;52.214;21.238;2023-08-08T02:09:41;99533.73;;;17.85;55.45
56582;BME280;42463;52.214;21.238;2023-08-08T02:11:46;99539.77;;;17.84;55.34
56582;BME280;42463;52.214;21.238;2023-08-08T02:13:51;99540.98;;;17.88;55.53
56582;BME280;42463;52.214;21.238;2023-08-08T02:15:57;99543.20;;;17.92;55.23
56582;BME280;42463;52.214;21.238;2023-08-08T02:18:03;99546.48;;;17.94;55.11
56582;BME280;42463;52.214;21.238;2023-08-08T02:20:10;99550.91;;;17.94;55.02
56582;BME280;42463;52.214;21.238;2023-08-08T02:22:16;99550.72;;;17.94;55.18
56582;BME280;42463;52.214;21.238;2023-08-08T02:24:22;99554.08;;;17.86;55.26
56582;BME280;42463;52.214;21.238;2023-08-08T02:26:28;99553.50;;;17.75;55.39
56582;BME280;42463;52.214;21.238;2023-08-08T02:28:34;99562.34;;;17.73;55.65
56582;BME280;42463;52.214;21.238;2023-08-08T02:30:40;99561.36;;;17.69;55.60
56582;BME280;42463;52.214;21.238;2023-08-08T02:32:48;99561.09;;;17.71;55.37
56582;BME280;42463;52.214;21.238;2023-08-08T02:34:53;99570.22;;;17.72;55.30
56582;BME280;42463;52.214;21.238;2023-08-08T02:36:59;99571.34;;;17.69;55.39
56582;BME280;42463;52.214;21.238;2023-08-08T02:39:04;99573.70;;;17.67;55.59
56582;BME280;42463;52.214;21.238;2023-08-08T02:41:10;99572.05;;;17.62;55.70
56582;BME280;42463;52.214;21.238;2023-08-08T02:43:16;99574.44;;;17.58;55.34
56582;BME280;42463;52.214;21.238;2023-08-08T02:45:21;99581.34;;;17.56;55.56
56582;BME280;42463;52.214;21.238;2023-08-08T02:47:27;99584.70;;;17.56;56.10
56582;BME280;42463;52.214;21.238;2023-08-08T02:49:33;99589.21;;;17.55;55.66
56582;BME280;42463;52.214;21.238;2023-08-08T02:51:39;99587.86;;;17.59;55.87
56582;BME280;42463;52.214;21.238;2023-08-08T02:53:44;99593.86;;;17.56;55.65
56582;BME280;42463;52.214;21.238;2023-08-08T02:55:50;99589.08;;;17.51;55.42
56582;BME280;42463;52.214;21.238;2023-08-08T02:57:56;99597.86;;;17.53;55.78
56582;BME280;42463;52.214;21.238;2023-08-08T03:00:01;99596.59;;;17.52;55.36
56582;BME280;42463;52.214;21.238;2023-08-08T03:02:10;99602.30;;;17.51;55.62
56582;BME280;42463;52.214;21.238;2023-08-08T03:04:16;99604.17;;;17.50;55.78
56582;BME280;42463;52.214;21.238;2023-08-08T03:06:22;99609.44;;;17.51;55.42
56582;BME280;42463;52.214;21.238;2023-08-08T03:08:28;99607.89;;;17.49;55.57
56582;BME280;42463;52.214;21.238;2023-08-08T03:10:35;99616.65;;;17.46;55.47
56582;BME280;42463;52.214;21.238;2023-08-08T03:12:40;99611.35;;;17.41;55.47
56582;BME280;42463;52.214;21.238;2023-08-08T03:14:46;99614.23;;;17.41;55.66
56582;BME280;42463;52.214;21.238;2023-08-08T03:16:52;99616.94;;;17.42;55.60
56582;BME280;42463;52.214;21.238;2023-08-08T03:18:58;99624.81;;;17.43;55.17
56582;BME280;42463;52.214;21.238;2023-08-08T03:21:03;99623.52;;;17.42;55.23
56582;BME280;42463;52.214;21.238;2023-08-08T03:23:11;99625.88;;;17.42;55.09
56582;BME280;42463;52.214;21.238;2023-08-08T03:25:18;99630.11;;;17.39;54.85
56582;BME280;42463;52.214;21.238;2023-08-08T03:27:24;99638.79;;;17.35;54.96
56582;BME280;42463;52.214;21.238;2023-08-08T03:29:30;99638.65;;;17.33;55.16
56582;BME280;42463;52.214;21.238;2023-08-08T03:31:35;99640.89;;;17.27;55.20
56582;BME280;42463;52.214;21.238;2023-08-08T03:33:41;99640.00;;;17.23;55.17
56582;BME280;42463;52.214;21.238;2023-08-08T03:35:48;99643.91;;;17.21;55.49
56582;BME280;42463;52.214;21.238;2023-08-08T03:37:53;99647.91;;;17.23;55.60
56582;BME280;42463;52.214;21.238;2023-08-08T03:40:00;99646.49;;;17.25;55.61
56582;BME280;42463;52.214;21.238;2023-08-08T03:42:08;99649.52;;;17.22;55.19
56582;BME280;42463;52.214;21.238;2023-08-08T03:44:14;99653.30;;;17.18;55.13
56582;BME280;42463;52.214;21.238;2023-08-08T03:46:19;99655.29;;;17.14;54.98
56582;BME280;42463;52.214;21.238;2023-08-08T03:48:25;99658.84;;;17.14;55.42
56582;BME280;42463;52.214;21.238;2023-08-08T03:50:31;99663.13;;;17.14;55.28
56582;BME280;42463;52.214;21.238;2023-08-08T03:52:40;99665.14;;;17.09;55.03
56582;BME280;42463;52.214;21.238;2023-08-08T03:54:48;99673.77;;;17.09;55.61
56582;BME280;42463;52.214;21.238;2023-08-08T03:56:54;99671.79;;;17.10;55.62
56582;BME280;42463;52.214;21.238;2023-08-08T03:59:00;99675.76;;;17.11;55.32
56582;BME280;42463;52.214;21.238;2023-08-08T04:01:06;99678.16;;;17.09;55.32
56582;BME280;42463;52.214;21.238;2023-08-08T04:03:12;99680.92;;;17.07;55.14
56582;BME280;42463;52.214;21.238;2023-08-08T04:05:18;99688.17;;;17.04;55.42
56582;BME280;42463;52.214;21.238;2023-08-08T04:07:24;99690.66;;;17.01;55.75
56582;BME280;42463;52.214;21.238;2023-08-08T04:09:30;99698.67;;;17.03;56.05
56582;BME280;42463;52.214;21.238;2023-08-08T04:11:36;99698.25;;;17.08;55.91
56582;BME280;42463;52.214;21.238;2023-08-08T04:13:41;99699.44;;;17.13;55.75
56582;BME280;42463;52.214;21.238;2023-08-08T04:15:47;99701.58;;;17.17;55.46
56582;BME280;42463;52.214;21.238;2023-08-08T04:17:53;99704.90;;;17.18;55.60
56582;BME280;42463;52.214;21.238;2023-08-08T04:19:58;99710.52;;;17.21;55.58
56582;BME280;42463;52.214;21.238;2023-08-08T04:22:05;99711.41;;;17.22;55.47
56582;BME280;42463;52.214;21.238;2023-08-08T04:24:11;99710.89;;;17.23;55.55
56582;BME280;42463;52.214;21.238;2023-08-08T04:26:17;99716.31;;;17.22;55.20
56582;BME280;42463;52.214;21.238;2023-08-08T04:28:23;99718.83;;;17.24;55.34
56582;BME280;42463;52.214;21.238;2023-08-08T04:30:28;99719.42;;;17.27;55.33
56582;BME280;42463;52.214;21.238;2023-08-08T04:32:34;99724.81;;;17.28;55.35
56582;BME280;42463;52.214;21.238;2023-08-08T04:34:39;99725.77;;;17.25;55.22
56582;BME280;42463;52.214;21.238;2023-08-08T04:36:45;99733.69;;;17.22;55.33
56582;BME280;42463;52.214;21.238;2023-08-08T04:38:50;99729.77;;;17.20;55.38
56582;BME280;42463;52.214;21.238;2023-08-08T04:40:58;99732.21;;;17.19;55.27
56582;BME280;42463;52.214;21.238;2023-08-08T04:43:05;99731.20;;;17.20;55.27
56582;BME280;42463;52.214;21.238;2023-08-08T04:45:11;99735.14;;;17.22;55.08
56582;BME280;42463;52.214;21.238;2023-08-08T04:47:17;99736.69;;;17.22;55.44
56582;BME280;42463;52.214;21.238;2023-08-08T04:49:22;99732.10;;;17.21;55.34
56582;BME280;42463;52.214;21.238;2023-08-08T04:51:28;99736.16;;;17.26;55.66
56582;BME280;42463;52.214;21.238;2023-08-08T04:53:35;99736.79;;;17.31;55.45
56582;BME280;42463;52.214;21.238;2023-08-08T04:55:41;99733.05;;;17.31;55.32
56582;BME280;42463;52.214;21.238;2023-08-08T04:57:47;99740.29;;;17.33;55.75
56582;BME280;42463;52.214;21.238;2023-08-08T04:59:52;99744.20;;;17.36;55.61
56582;BME280;42463;52.214;21.238;2023-08-08T05:01:58;99744.98;;;17.36;55.17
56582;BME280;42463;52.214;21.238;2023-08-08T05:04:04;99751.34;;;17.38;55.27
56582;BME280;42463;52.214;21.238;2023-08-08T05:06:09;99750.46;;;17.42;55.44
56582;BME280;42463;52.214;21.238;2023-08-08T05:08:15;99753.83;;;17.45;55.46
56582;BME280;42463;52.214;21.238;2023-08-08T05:10:21;99750.34;;;17.46;55.51
56582;BME280;42463;52.214;21.238;2023-08-08T05:12:27;99752.36;;;17.49;55.49
56582;BME280;42463;52.214;21.238;2023-08-08T05:14:32;99758.53;;;17.52;55.50
56582;BME280;42463;52.214;21.238;2023-08-08T05:16:38;99753.21;;;17.52;55.24
56582;BME280;42463;52.214;21.238;2023-08-08T05:18:44;99753.97;;;17.56;55.59
56582;BME280;42463;52.214;21.238;2023-08-08T05:20:50;99757.23;;;17.59;55.45
56582;BME280;42463;52.214;21.238;2023-08-08T05:22:57;99762.38;;;17.62;55.22
56582;BME280;42463;52.214;21.238;2023-08-08T05:25:07;99764.67;;;17.66;55.23
56582;BME280;42463;52.214;21.238;2023-08-08T05:27:13;99764.66;;;17.67;54.56
56582;BME280;42463;52.214;21.238;2023-08-08T05:29:19;99769.85;;;17.65;54.04
56582;BME280;42463;52.214;21.238;2023-08-08T05:31:25;99765.70;;;17.61;54.33
56582;BME280;42463;52.214;21.238;2023-08-08T05:33:31;99767.41;;;17.60;54.50
56582;BME280;42463;52.214;21.238;2023-08-08T05:35:37;99772.66;;;17.59;54.35
56582;BME280;42463;52.214;21.238;2023-08-08T05:37:42;99772.00;;;17.55;54.33
56582;BME280;42463;52.214;21.238;2023-08-08T05:39:48;99774.89;;;17.53;54.55
56582;BME280;42463;52.214;21.238;2023-08-08T05:41:53;99775.64;;;17.54;54.71
56582;BME280;42463;52.214;21.238;2023-08-08T05:43:59;99777.88;;;17.56;54.96
56582;BME280;42463;52.214;21.238;2023-08-08T05:46:05;99782.95;;;17.61;54.81
56582;BME280;42463;52.214;21.238;2023-08-08T05:48:11;99783.23;;;17.63;54.50
56582;BME280;42463;52.214;21.238;2023-08-08T05:50:18;99778.73;;;17.63;54.56
56582;BME280;42463;52.214;21.238;2023-08-08T05:52:25;99785.02;;;17.67;54.79
56582;BME280;42463;52.214;21.238;2023-08-08T05:54:31;99786.85;;;17.66;54.66
56582;BME280;42463;52.214;21.238;2023-08-08T05:56:38;99779.71;;;17.66;55.41
56582;BME280;42463;52.214;21.238;2023-08-08T05:58:44;99782.06;;;17.64;54.30
56582;BME280;42463;52.214;21.238;2023-08-08T06:00:57;99788.03;;;17.61;54.66
56582;BME280;42463;52.214;21.238;2023-08-08T06:03:10;99795.29;;;17.62;54.84
56582;BME280;42463;52.214;21.238;2023-08-08T06:05:17;99797.95;;;17.65;54.97
56582;BME280;42463;52.214;21.238;2023-08-08T06:07:23;99795.71;;;17.71;55.06
56582;BME280;42463;52.214;21.238;2023-08-08T06:09:29;99795.15;;;17.75;54.70
56582;BME280;42463;52.214;21.238;2023-08-08T06:11:39;99794.66;;;17.76;54.53
56582;BME280;42463;52.214;21.238;2023-08-08T06:13:49;99800.98;;;17.74;53.94
56582;BME280;42463;52.214;21.238;2023-08-08T06:15:55;99811.17;;;17.71;54.04
56582;BME280;42463;52.214;21.238;2023-08-08T06:18:01;99804.54;;;17.74;54.48
56582;BME280;42463;52.214;21.238;2023-08-08T06:20:08;99806.55;;;17.79;54.89
56582;BME280;42463;52.214;21.238;2023-08-08T06:22:16;99807.15;;;17.81;54.30
56582;BME280;42463;52.214;21.238;2023-08-08T06:24:22;99816.50;;;17.80;54.01
56582;BME280;42463;52.214;21.238;2023-08-08T06:26:28;99819.38;;;17.81;54.08
56582;BME280;42463;52.214;21.238;2023-08-08T06:28:33;99808.67;;;17.85;53.95
56582;BME280;42463;52.214;21.238;2023-08-08T06:30:39;99811.43;;;17.89;54.11
56582;BME280;42463;52.214;21.238;2023-08-08T06:32:45;99810.38;;;17.93;54.14
56582;BME280;42463;52.214;21.238;2023-08-08T06:34:50;99816.90;;;18.01;54.65
56582;BME280;42463;52.214;21.238;2023-08-08T06:36:56;99817.02;;;18.05;53.49
56582;BME280;42463;52.214;21.238;2023-08-08T06:39:02;99818.11;;;18.07;53.50
56582;BME280;42463;52.214;21.238;2023-08-08T06:41:09;99819.94;;;18.12;54.49
56582;BME280;42463;52.214;21.238;2023-08-08T06:43:16;99821.65;;;18.17;53.64
56582;BME280;42463;52.214;21.238;2023-08-08T06:45:23;99822.41;;;18.23;53.93
56582;BME280;42463;52.214;21.238;2023-08-08T06:47:30;99827.23;;;18.27;53.25
56582;BME280;42463;52.214;21.238;2023-08-08T06:49:44;99827.34;;;18.28;52.85
56582;BME280;42463;52.214;21.238;2023-08-08T06:51:49;99828.89;;;18.32;52.96
56582;BME280;42463;52.214;21.238;2023-08-08T06:53:55;99825.77;;;18.34;52.98
56582;BME280;42463;52.214;21.238;2023-08-08T06:56:01;99825.58;;;18.37;53.08
56582;BME280;42463;52.214;21.238;2023-08-08T06:58:06;99829.42;;;18.38;52.53
56582;BME280;42463;52.214;21.238;2023-08-08T07:00:14;99832.02;;;18.40;53.13
56582;BME280;42463;52.214;21.238;2023-08-08T07:02:20;99834.73;;;18.41;52.40
56582;BME280;42463;52.214;21.238;2023-08-08T07:04:26;99834.40;;;18.39;52.56
56582;BME280;42463;52.214;21.238;2023-08-08T07:06:32;99834.56;;;18.39;52.57
56582;BME280;42463;52.214;21.238;2023-08-08T07:08:37;99836.15;;;18.41;52.33
56582;BME280;42463;52.214;21.238;2023-08-08T07:10:45;99835.70;;;18.44;52.35
56582;BME280;42463;52.214;21.238;2023-08-08T07:12:51;99834.93;;;18.49;52.54
56582;BME280;42463;52.214;21.238;2023-08-08T07:14:57;99835.59;;;18.56;53.07
56582;BME280;42463;52.214;21.238;2023-08-08T07:17:03;99836.08;;;18.60;52.38
56582;BME280;42463;52.214;21.238;2023-08-08T07:19:09;99837.55;;;18.61;51.93
56582;BME280;42463;52.214;21.238;2023-08-08T07:21:16;99834.98;;;18.57;51.71
56582;BME280;42463;52.214;21.238;2023-08-08T07:23:21;99835.68;;;18.53;52.28
56582;BME280;42463;52.214;21.238;2023-08-08T07:25:28;99836.45;;;18.55;52.09
56582;BME280;42463;52.214;21.238;2023-08-08T07:27:34;99837.69;;;18.58;52.12
56582;BME280;42463;52.214;21.238;2023-08-08T07:29:39;99834.72;;;18.64;51.70
56582;BME280;42463;52.214;21.238;2023-08-08T07:31:45;99836.48;;;18.70;51.93
56582;BME280;42463;52.214;21.238;2023-08-08T07:33:53;99836.14;;;18.75;52.40
56582;BME280;42463;52.214;21.238;2023-08-08T07:35:59;99837.66;;;18.83;52.30
56582;BME280;42463;52.214;21.238;2023-08-08T07:38:05;99838.89;;;18.88;51.64
56582;BME280;42463;52.214;21.238;2023-08-08T07:40:21;99842.36;;;18.91;51.11
56582;BME280;42463;52.214;21.238;2023-08-08T07:42:27;99833.01;;;18.91;50.09
56582;BME280;42463;52.214;21.238;2023-08-08T07:44:32;99829.03;;;18.95;50.44
56582;BME280;42463;52.214;21.238;2023-08-08T07:46:39;99832.10;;;18.99;50.81
56582;BME280;42463;52.214;21.238;2023-08-08T07:48:44;99837.02;;;19.00;49.94
56582;BME280;42463;52.214;21.238;2023-08-08T07:50:50;99832.35;;;19.03;50.14
56582;BME280;42463;52.214;21.238;2023-08-08T07:52:56;99833.36;;;19.06;50.14
56582;BME280;42463;52.214;21.238;2023-08-08T07:55:04;99829.23;;;19.14;50.60
56582;BME280;42463;52.214;21.238;2023-08-08T07:57:11;99826.09;;;19.23;50.37
56582;BME280;42463;52.214;21.238;2023-08-08T07:59:18;99831.52;;;19.28;49.11
56582;BME280;42463;52.214;21.238;2023-08-08T08:01:23;99831.55;;;19.27;48.57
56582;BME280;42463;52.214;21.238;2023-08-08T08:03:29;99828.17;;;19.28;48.78
56582;BME280;42463;52.214;21.238;2023-08-08T08:05:35;99835.97;;;19.33;49.61
56582;BME280;42463;52.214;21.238;2023-08-08T08:07:42;99838.13;;;19.37;49.09
56582;BME280;42463;52.214;21.238;2023-08-08T08:09:49;99838.00;;;19.36;47.97
56582;BME280;42463;52.214;21.238;2023-08-08T08:11:54;99841.89;;;19.32;47.63
56582;BME280;42463;52.214;21.238;2023-08-08T08:14:00;99838.46;;;19.29;47.23
56582;BME280;42463;52.214;21.238;2023-08-08T08:16:06;99845.59;;;19.27;48.52
56582;BME280;42463;52.214;21.238;2023-08-08T08:18:12;99848.02;;;19.28;48.41
56582;BME280;42463;52.214;21.238;2023-08-08T08:20:21;99844.67;;;19.33;48.64
56582;BME280;42463;52.214;21.238;2023-08-08T08:22:29;99838.96;;;19.39;48.73
56582;BME280;42463;52.214;21.238;2023-08-08T08:24:35;99840.73;;;19.45;48.35
56582;BME280;42463;52.214;21.238;2023-08-08T08:26:41;99837.66;;;19.43;47.46
56582;BME280;42463;52.214;21.238;2023-08-08T08:28:47;99841.36;;;19.41;47.94
56582;BME280;42463;52.214;21.238;2023-08-08T08:30:53;99844.52;;;19.42;47.68
56582;BME280;42463;52.214;21.238;2023-08-08T08:32:58;99839.38;;;19.44;47.91
56582;BME280;42463;52.214;21.238;2023-08-08T08:35:06;99844.74;;;19.51;47.17
56582;BME280;42463;52.214;21.238;2023-08-08T08:37:12;99841.50;;;19.52;46.87
56582;BME280;42463;52.214;21.238;2023-08-08T08:39:17;99842.02;;;19.53;47.14
56582;BME280;42463;52.214;21.238;2023-08-08T08:41:27;99848.23;;;19.60;46.78
56582;BME280;42463;52.214;21.238;2023-08-08T08:43:33;99844.70;;;19.60;47.08
56582;BME280;42463;52.214;21.238;2023-08-08T08:45:40;99845.54;;;19.63;47.29
56582;BME280;42463;52.214;21.238;2023-08-08T08:47:48;99840.56;;;19.70;48.07
56582;BME280;42463;52.214;21.238;2023-08-08T08:49:55;99853.15;;;19.73;47.86
56582;BME280;42463;52.214;21.238;2023-08-08T08:52:01;99848.95;;;19.69;45.99
56582;BME280;42463;52.214;21.238;2023-08-08T08:54:10;99854.05;;;19.64;45.39
56582;BME280;42463;52.214;21.238;2023-08-08T08:56:16;99855.52;;;19.63;46.90
56582;BME280;42463;52.214;21.238;2023-08-08T08:58:22;99850.39;;;19.64;46.62
56582;BME280;42463;52.214;21.238;2023-08-08T09:00:30;99851.35;;;19.68;46.04
56582;BME280;42463;52.214;21.238;2023-08-08T09:02:37;99848.01;;;19.69;45.59
56582;BME280;42463;52.214;21.238;2023-08-08T09:04:42;99850.77;;;19.66;45.80
56582;BME280;42463;52.214;21.238;2023-08-08T09:06:50;99846.36;;;19.68;45.84
56582;BME280;42463;52.214;21.238;2023-08-08T09:08:56;99849.30;;;19.72;46.29
56582;BME280;42463;52.214;21.238;2023-08-08T09:11:02;99850.42;;;19.76;45.54
56582;BME280;42463;52.214;21.238;2023-08-08T09:13:08;99849.19;;;19.75;44.87
56582;BME280;42463;52.214;21.238;2023-08-08T09:15:14;99845.83;;;19.75;46.37
56582;BME280;42463;52.214;21.238;2023-08-08T09:17:21;99852.10;;;19.75;45.96
56582;BME280;42463;52.214;21.238;2023-08-08T09:19:27;99860.91;;;19.77;46.85
56582;BME280;42463;52.214;21.238;2023-08-08T09:21:34;99861.17;;;19.81;46.44
56582;BME280;42463;52.214;21.238;2023-08-08T09:23:40;99855.54;;;19.83;46.42
56582;BME280;42463;52.214;21.238;2023-08-08T09:25:46;99861.13;;;19.85;46.34
56582;BME280;42463;52.214;21.238;2023-08-08T09:27:53;99855.45;;;19.89;45.67
56582;BME280;42463;52.214;21.238;2023-08-08T09:29:59;99863.65;;;19.93;45.24
56582;BME280;42463;52.214;21.238;2023-08-08T09:32:06;99867.95;;;19.96;44.82
56582;BME280;42463;52.214;21.238;2023-08-08T09:34:12;99867.75;;;19.97;44.65
56582;BME280;42463;52.214;21.238;2023-08-08T09:36:18;99870.77;;;19.98;44.14
56582;BME280;42463;52.214;21.238;2023-08-08T09:38:26;99870.15;;;19.98;44.22
56582;BME280;42463;52.214;21.238;2023-08-08T09:40:32;99874.29;;;19.99;44.75
56582;BME280;42463;52.214;21.238;2023-08-08T09:42:39;99871.86;;;20.05;45.77
56582;BME280;42463;52.214;21.238;2023-08-08T09:44:45;99870.55;;;20.11;45.50
56582;BME280;42463;52.214;21.238;2023-08-08T09:46:53;99865.63;;;20.18;45.36
56582;BME280;42463;52.214;21.238;2023-08-08T09:48:59;99876.59;;;20.21;44.63
56582;BME280;42463;52.214;21.238;2023-08-08T09:51:06;99874.93;;;20.21;44.78
56582;BME280;42463;52.214;21.238;2023-08-08T09:53:13;99876.40;;;20.18;44.13
56582;BME280;42463;52.214;21.238;2023-08-08T09:55:19;99873.81;;;20.20;44.12
56582;BME280;42463;52.214;21.238;2023-08-08T09:57:26;99869.07;;;20.21;43.50
56582;BME280;42463;52.214;21.238;2023-08-08T09:59:32;99865.69;;;20.22;43.98
56582;BME280;42463;52.214;21.238;2023-08-08T10:01:38;99872.77;;;20.20;42.57
56582;BME280;42463;52.214;21.238;2023-08-08T10:03:46;99869.96;;;20.17;42.18
56582;BME280;42463;52.214;21.238;2023-08-08T10:05:52;99866.02;;;20.16;42.93
56582;BME280;42463;52.214;21.238;2023-08-08T10:07:59;99868.08;;;20.18;43.38
56582;BME280;42463;52.214;21.238;2023-08-08T10:10:08;99872.10;;;20.18;42.74
56582;BME280;42463;52.214;21.238;2023-08-08T10:12:14;99871.27;;;20.16;42.70
56582;BME280;42463;52.214;21.238;2023-08-08T10:14:21;99881.05;;;20.15;41.75
56582;BME280;42463;52.214;21.238;2023-08-08T10:16:34;99878.28;;;20.12;41.97
56582;BME280;42463;52.214;21.238;2023-08-08T10:18:40;99877.99;;;20.13;42.23
56582;BME280;42463;52.214;21.238;2023-08-08T10:20:47;99875.85;;;20.18;42.88
56582;BME280;42463;52.214;21.238;2023-08-08T10:22:55;99870.90;;;20.24;42.35
56582;BME280;42463;52.214;21.238;2023-08-08T10:25:05;99869.41;;;20.30;42.74
56582;BME280;42463;52.214;21.238;2023-08-08T10:27:12;99864.40;;;20.38;43.24
56582;BME280;42463;52.214;21.238;2023-08-08T10:29:20;99868.05;;;20.45;42.36
56582;BME280;42463;52.214;21.238;2023-08-08T10:31:26;99859.17;;;20.51;41.95
56582;BME280;42463;52.214;21.238;2023-08-08T10:33:42;99865.05;;;20.56;41.96
56582;BME280;42463;52.214;21.238;2023-08-08T10:36:01;99861.37;;;20.61;42.24
56582;BME280;42463;52.214;21.238;2023-08-08T10:38:10;99865.36;;;20.66;42.70
56582;BME280;42463;52.214;21.238;2023-08-08T10:40:18;99864.92;;;20.69;41.59
56582;BME280;42463;52.214;21.238;2023-08-08T10:42:26;99877.53;;;20.67;40.27
56582;BME280;42463;52.214;21.238;2023-08-08T10:44:40;99880.25;;;20.64;40.14
56582;BME280;42463;52.214;21.238;2023-08-08T10:46:46;99885.09;;;20.63;40.61
56582;BME280;42463;52.214;21.238;2023-08-08T10:48:54;99883.90;;;20.63;40.80
56582;BME280;42463;52.214;21.238;2023-08-08T10:51:00;99884.52;;;20.63;40.68
56582;BME280;42463;52.214;21.238;2023-08-08T10:53:09;99881.65;;;20.60;40.74
56582;BME280;42463;52.214;21.238;2023-08-08T10:55:21;99882.29;;;20.60;40.63
56582;BME280;42463;52.214;21.238;2023-08-08T10:57:28;99880.70;;;20.64;40.78
56582;BME280;42463;52.214;21.238;2023-08-08T10:59:39;99880.54;;;20.70;40.02
56582;BME280;42463;52.214;21.238;2023-08-08T11:01:48;99883.41;;;20.73;39.51
56582;BME280;42463;52.214;21.238;2023-08-08T11:03:55;99881.42;;;20.79;39.78
56582;BME280;42463;52.214;21.238;2023-08-08T11:06:03;99880.95;;;20.84;39.71